Time,TemperatureF,DewpointF,PressureIn,WindDirection,WindDirectionDegrees,WindSpeedMPH,WindSpeedGustMPH,Humidity,HourlyPrecipIn,Conditions,Clouds,dailyrainin,SoftwareType,DateUTC
2013-10-05 00:54:00,58.0,-99.9,30.02,NNE,30,6.0,7.0,-999,-99.99,,,-99.99,,2013-10-05 04:54:00,
2013-10-05 01:00:00,58.0,-99.9,30.02,NE,42,6.0,7.0,-999,-99.99,,,-99.99,,2013-10-05 05:00:00,
2013-10-05 01:52:00,58.0,-99.9,30.02,NE,42,6.0,7.0,-999,-99.99,,,-99.99,,2013-10-05 05:52:00,
2013-10-05 02:52:00,58.0,-99.9,30.03,NE,37,8.0,10.0,-999,-99.99,,,-99.99,,2013-10-05 06:52:00,
2013-10-05 03:00:00,57.0,-99.9,30.04,NE,35,12.0,13.0,-999,-99.99,,,-99.99,,2013-10-05 07:00:00,
2013-10-05 03:52:00,57.0,-99.9,30.04,NE,35,12.0,13.0,-999,-99.99,,,-99.99,,2013-10-05 07:52:00,
2013-10-05 04:52:00,56.0,-99.9,30.05,NE,36,10.0,12.0,-999,-99.99,,,-99.99,,2013-10-05 08:52:00,
2013-10-05 05:00:00,55.0,-99.9,30.05,NE,43,13.0,14.0,-999,-99.99,,,-99.99,,2013-10-05 09:00:00,
2013-10-05 05:54:00,55.0,-99.9,30.05,NE,43,13.0,14.0,-999,-99.99,,,-99.99,,2013-10-05 09:54:00,
2013-10-05 06:00:00,55.0,-99.9,30.07,NNE,29,10.0,12.0,-999,-99.99,,,-99.99,,2013-10-05 10:00:00,
2013-10-05 06:54:00,55.0,-99.9,30.07,NNE,29,10.0,12.0,-999,-99.99,,,-99.99,,2013-10-05 10:54:00,
2013-10-05 07:10:00,54.0,-99.9,30.07,NE,51,11.0,13.0,-999,-99.99,,,-99.99,,2013-10-05 11:10:00,
2013-10-05 08:53:00,54.0,-99.9,30.09,NE,36,8.0,9.0,-999,-99.99,,,-99.99,,2013-10-05 12:53:00,
2013-10-05 09:52:00,55.0,-99.9,30.09,NE,39,8.0,10.0,-999,-99.99,,,-99.99,,2013-10-05 13:52:00,
2013-10-05 10:00:00,55.0,-99.9,30.07,NE,54,3.0,5.0,-999,-99.99,,,-99.99,,2013-10-05 14:00:00,
2013-10-05 10:52:00,55.0,-99.9,30.07,NE,54,3.0,5.0,-999,-99.99,,,-99.99,,2013-10-05 14:52:00,
2013-10-05 11:54:00,55.0,-99.9,30.07,North,9,5.0,6.0,-999,-99.99,,,-99.99,,2013-10-05 15:54:00,
2013-10-05 12:53:00,55.0,-99.9,30.07,NNW,343,3.0,5.0,-999,-99.99,,,-99.99,,2013-10-05 16:53:00,
2013-10-05 13:53:00,55.0,-99.9,30.06,North,8,4.0,5.0,-999,-99.99,,,-99.99,,2013-10-05 17:53:00,
2013-10-05 15:00:00,55.0,-99.9,30.04,SSE,166,6.0,7.0,-999,-99.99,,,-99.99,,2013-10-05 19:00:00,
2013-10-05 15:52:00,55.0,-99.9,30.04,SSE,166,6.0,7.0,-999,-99.99,,,-99.99,,2013-10-05 19:52:00,
2013-10-05 17:30:00,56.0,-99.9,30.04,South,175,6.0,7.0,-999,-99.99,,,-99.99,,2013-10-05 21:30:00,
2013-10-05 17:54:00,55.0,-99.9,30.04,South,177,8.0,9.0,-999,-99.99,,,-99.99,,2013-10-05 21:54:00,
2013-10-05 18:13:00,56.0,-99.9,30.04,South,175,6.0,7.0,-999,-99.99,,,-99.99,,2013-10-05 22:13:00,
2013-10-05 18:24:00,56.0,-99.9,30.04,South,175,6.0,7.0,-999,-99.99,,,-99.99,,2013-10-05 22:24:00,
2013-10-05 18:54:00,56.0,-99.9,30.05,South,185,6.0,8.0,-999,-99.99,,,-99.99,,2013-10-05 22:54:00,
2013-10-05 20:00:00,55.0,-99.9,30.06,SW,230,8.0,9.0,-999,-99.99,,,-99.99,,2013-10-06 00:00:00,
2013-10-05 20:52:00,55.0,-99.9,30.06,SW,230,8.0,9.0,-999,-99.99,,,-99.99,,2013-10-06 00:52:00,
2013-10-05 21:00:00,55.0,-99.9,30.05,SW,228,6.0,7.0,-999,-99.99,,,-99.99,,2013-10-06 01:00:00,
2013-10-05 21:52:00,55.0,-99.9,30.05,SW,228,6.0,7.0,-999,-99.99,,,-99.99,,2013-10-06 01:52:00,
2013-10-05 22:00:00,54.0,-99.9,30.07,West,276,4.0,5.0,-999,-99.99,,,-99.99,,2013-10-06 02:00:00,
2013-10-05 22:53:00,54.0,-99.9,30.07,West,276,4.0,5.0,-999,-99.99,,,-99.99,,2013-10-06 02:53:00,
2013-10-05 23:54:00,55.0,-99.9,30.08,WNW,294,4.0,5.0,-999,-99.99,,,-99.99,,2013-10-06 03:54:00,